Time;durP1;ratioP1;P1;durP2;ratioP2;P2;SDS_P1;SDS_P2;PMS_P1;PMS_P2;Temp;Humidity;BMP_temperature;BMP_pressure;BME280_temperature;BME280_humidity;BME280_pressure;Samples;Min_cycle;Max_cycle;Signal;HPM_P1;HPM_P2
2021/09/08 00:00:12;;;;;;;20.60;18.15;;;16.20;99.90;;;;;;5049825;28;20060;-50
2021/09/08 00:02:38;;;;;;;21.45;18.20;;;16.10;99.90;;;;;;5061365;28;20520;-51
2021/09/08 00:05:07;;;;;;;19.27;16.55;;;16.10;99.90;;;;;;5053254;28;20059;-48
2021/09/08 00:07:33;;;;;;;21.48;18.30;;;16.10;99.90;;;;;;5056713;28;20060;-51
2021/09/08 00:09:59;;;;;;;20.23;18.00;;;16.10;99.90;;;;;;5054081;28;20052;-50
2021/09/08 00:12:25;;;;;;;22.77;17.90;;;16.10;99.90;;;;;;5067845;28;20055;-52
2021/09/08 00:14:52;;;;;;;20.55;18.35;;;16.10;99.90;;;;;;5066764;28;20535;-50
2021/09/08 00:17:20;;;;;;;20.98;18.42;;;16.00;99.90;;;;;;5068400;28;20067;-53
2021/09/08 00:19:47;;;;;;;20.92;18.73;;;16.00;99.90;;;;;;5069353;28;20040;-52
2021/09/08 00:22:13;;;;;;;21.17;18.98;;;16.00;99.90;;;;;;5063106;28;20131;-52
2021/09/08 00:24:39;;;;;;;21.77;19.58;;;15.90;99.90;;;;;;5073434;28;20167;-50
2021/09/08 00:27:18;;;;;;;19.80;17.75;;;16.00;99.90;;;;;;5066390;28;20052;-51
2021/09/08 00:29:46;;;;;;;22.75;19.48;;;15.90;99.90;;;;;;5069385;28;20471;-52
2021/09/08 00:32:13;;;;;;;21.77;19.00;;;15.90;99.90;;;;;;5068090;28;20056;-53
2021/09/08 00:34:39;;;;;;;22.52;19.20;;;15.90;99.90;;;;;;5067949;28;20048;-51
2021/09/08 00:37:08;;;;;;;22.95;20.50;;;15.80;99.90;;;;;;5064476;28;20052;-51
2021/09/08 00:39:36;;;;;;;23.42;19.48;;;15.80;99.90;;;;;;5059634;28;20683;-50
2021/09/08 00:42:17;;;;;;;24.02;19.95;;;15.80;99.90;;;;;;5070034;28;20045;-50
2021/09/08 00:44:45;;;;;;;22.58;20.10;;;15.80;99.90;;;;;;5056548;28;20053;-52
2021/09/08 00:47:16;;;;;;;23.60;19.67;;;15.70;99.90;;;;;;5056048;28;20077;-52
2021/09/08 00:49:46;;;;;;;26.58;20.27;;;15.70;99.90;;;;;;5066800;28;20052;-50
2021/09/08 00:52:16;;;;;;;23.35;19.98;;;15.70;99.90;;;;;;5064334;28;20052;-52
2021/09/08 00:54:54;;;;;;;21.73;19.48;;;15.60;99.90;;;;;;5064022;28;20401;-49
2021/09/08 00:57:22;;;;;;;25.83;20.05;;;15.60;99.90;;;;;;5060364;28;20087;-49
2021/09/08 00:59:49;;;;;;;23.95;21.33;;;15.60;99.90;;;;;;5053696;28;20087;-51
2021/09/08 01:02:16;;;;;;;24.50;21.90;;;15.60;99.90;;;;;;5054151;28;20092;-52
2021/09/08 01:04:45;;;;;;;33.17;22.55;;;15.50;99.90;;;;;;5066697;28;20468;-54
2021/09/08 01:07:12;;;;;;;27.08;23.13;;;15.50;99.90;;;;;;5069182;28;20074;-50
2021/09/08 01:09:40;;;;;;;25.35;21.73;;;15.50;99.90;;;;;;5068862;28;20053;-49
2021/09/08 01:12:07;;;;;;;24.73;22.08;;;15.50;99.90;;;;;;5068363;28;20048;-52
2021/09/08 01:14:35;;;;;;;28.70;23.00;;;15.40;99.90;;;;;;5066587;28;20048;-51
2021/09/08 01:17:02;;;;;;;25.27;22.48;;;15.50;99.90;;;;;;5062260;28;20053;-49
2021/09/08 01:19:28;;;;;;;26.67;21.65;;;15.40;99.90;;;;;;5057960;28;20783;-54
2021/09/08 01:21:54;;;;;;;26.40;23.33;;;15.40;99.90;;;;;;5060375;28;20053;-50
2021/09/08 01:24:23;;;;;;;26.77;23.85;;;15.40;99.90;;;;;;5059046;28;20049;-51
2021/09/08 01:26:52;;;;;;;28.38;22.90;;;15.40;99.90;;;;;;5053327;28;20056;-52
2021/09/08 01:29:19;;;;;;;28.95;23.58;;;15.30;99.90;;;;;;5056707;28;20048;-50
2021/09/08 01:31:56;;;;;;;28.00;23.20;;;15.30;99.90;;;;;;5062778;28;20098;-51
2021/09/08 01:34:23;;;;;;;27.50;24.58;;;15.30;99.90;;;;;;5061623;28;20053;-48
2021/09/08 01:36:49;;;;;;;27.27;24.48;;;15.30;99.90;;;;;;5068114;28;20049;-54
2021/09/08 01:39:19;;;;;;;27.90;24.55;;;15.30;99.90;;;;;;5068505;28;20068;-51
2021/09/08 01:41:46;;;;;;;27.88;24.30;;;15.30;99.90;;;;;;5069304;28;20052;-48
2021/09/08 01:44:25;;;;;;;29.42;24.40;;;15.30;99.90;;;;;;5066782;28;20056;-53
2021/09/08 01:46:53;;;;;;;27.45;24.65;;;15.20;99.90;;;;;;5051217;28;20110;-50
2021/09/08 01:49:22;;;;;;;26.73;23.50;;;15.20;99.90;;;;;;5068076;28;20045;-48
2021/09/08 01:51:51;;;;;;;30.20;24.80;;;15.20;99.90;;;;;;5068576;28;20174;-49
2021/09/08 01:54:20;;;;;;;29.38;25.30;;;15.20;99.90;;;;;;5065585;28;20059;-51
2021/09/08 01:56:48;;;;;;;30.42;25.95;;;15.20;99.90;;;;;;5067736;28;20074;-52
2021/09/08 01:59:14;;;;;;;30.27;24.55;;;15.10;99.90;;;;;;5056374;28;20045;-49
2021/09/08 02:01:40;;;;;;;34.20;26.08;;;15.10;99.90;;;;;;5064737;28;20044;-49
2021/09/08 02:04:06;;;;;;;28.52;24.95;;;15.10;99.90;;;;;;5064018;28;20624;-49
2021/09/08 02:06:32;;;;;;;29.08;25.58;;;15.10;99.90;;;;;;5066663;28;20139;-49
2021/09/08 02:09:00;;;;;;;27.38;24.38;;;15.00;99.90;;;;;;5066792;28;20439;-50
2021/09/08 02:11:29;;;;;;;28.50;24.95;;;15.10;99.90;;;;;;5066777;28;20573;-51
2021/09/08 02:13:56;;;;;;;27.70;24.40;;;15.00;99.90;;;;;;5059503;28;20488;-47
2021/09/08 02:16:23;;;;;;;26.65;23.88;;;15.00;99.90;;;;;;5052811;28;20501;-55
2021/09/08 02:18:52;;;;;;;30.33;24.55;;;15.00;99.90;;;;;;5068199;28;20052;-49
2021/09/08 02:21:18;;;;;;;27.20;22.63;;;15.00;99.90;;;;;;5064623;28;20462;-50
2021/09/08 02:23:45;;;;;;;27.58;24.67;;;15.00;99.90;;;;;;5053811;28;20630;-51
2021/09/08 02:26:13;;;;;;;26.48;23.67;;;15.00;99.90;;;;;;5063134;28;20063;-51
2021/09/08 02:28:43;;;;;;;28.58;25.52;;;15.00;99.90;;;;;;5065795;28;20056;-52
2021/09/08 02:31:12;;;;;;;30.05;24.95;;;15.00;99.90;;;;;;5066822;28;20174;-52
2021/09/08 02:33:38;;;;;;;29.13;25.42;;;14.90;99.90;;;;;;5066791;28;20052;-51
2021/09/08 02:36:05;;;;;;;26.65;23.73;;;14.90;99.90;;;;;;5058324;28;20091;-55
2021/09/08 02:38:32;;;;;;;27.45;24.50;;;14.90;99.90;;;;;;5064810;28;20136;-51
2021/09/08 02:41:07;;;;;;;30.80;24.85;;;14.80;99.90;;;;;;5065258;28;20056;-49
2021/09/08 02:43:37;;;;;;;26.95;22.73;;;14.80;99.90;;;;;;5060240;28;20048;-49
2021/09/08 02:46:06;;;;;;;27.52;24.63;;;14.80;99.90;;;;;;5053904;28;20524;-53
2021/09/08 02:48:33;;;;;;;28.70;23.77;;;14.90;99.90;;;;;;5067260;28;20083;-52
2021/09/08 02:51:03;;;;;;;27.00;24.10;;;14.80;99.90;;;;;;5066793;28;20059;-49
2021/09/08 02:53:33;;;;;;;26.20;23.38;;;14.80;99.90;;;;;;5055252;28;20084;-52
2021/09/08 02:56:02;;;;;;;27.73;23.73;;;14.80;99.90;;;;;;5051526;28;20096;-52
2021/09/08 02:58:29;;;;;;;29.35;23.52;;;14.80;99.90;;;;;;5063907;28;20060;-52
2021/09/08 03:00:55;;;;;;;27.02;23.50;;;14.80;99.90;;;;;;5058321;28;20051;-49
2021/09/08 03:03:21;;;;;;;28.17;25.17;;;14.80;99.90;;;;;;5054101;28;20053;-49
2021/09/08 03:05:51;;;;;;;29.15;24.58;;;14.70;99.90;;;;;;5060759;28;20054;-49
2021/09/08 03:08:17;;;;;;;25.27;22.58;;;14.70;99.90;;;;;;5067255;28;20057;-51
2021/09/08 03:10:49;;;;;;;27.35;24.15;;;14.70;99.90;;;;;;5067122;28;20044;-49
2021/09/08 03:13:17;;;;;;;26.25;23.52;;;14.70;99.90;;;;;;5066196;28;20048;-50
2021/09/08 03:15:44;;;;;;;27.75;23.83;;;14.70;99.90;;;;;;5061439;28;20092;-52
2021/09/08 03:18:13;;;;;;;28.17;25.15;;;14.70;99.90;;;;;;5073492;28;20055;-47
2021/09/08 03:20:39;;;;;;;27.75;24.25;;;14.70;99.90;;;;;;5063658;28;20048;-50
2021/09/08 03:23:05;;;;;;;27.17;24.25;;;14.70;99.90;;;;;;5064551;28;20098;-49
2021/09/08 03:25:31;;;;;;;28.38;25.35;;;14.70;99.90;;;;;;5066497;28;20061;-50
2021/09/08 03:27:58;;;;;;;27.33;23.48;;;14.70;99.90;;;;;;5066898;28;20275;-52
2021/09/08 03:30:25;;;;;;;28.33;25.20;;;14.60;99.90;;;;;;5061448;28;20048;-49
2021/09/08 03:32:53;;;;;;;30.20;26.13;;;14.60;99.90;;;;;;5064344;28;20519;-51
2021/09/08 03:35:20;;;;;;;28.13;25.15;;;14.60;99.90;;;;;;5055335;28;20679;-48
2021/09/08 03:37:46;;;;;;;28.23;24.90;;;14.60;99.90;;;;;;5054946;28;20051;-51
2021/09/08 03:40:15;;;;;;;29.25;25.60;;;14.60;99.90;;;;;;5069882;28;20048;-49
2021/09/08 03:42:41;;;;;;;30.30;25.33;;;14.50;99.90;;;;;;5058938;28;20061;-49
2021/09/08 03:45:09;;;;;;;35.05;26.67;;;14.50;99.90;;;;;;5068250;28;20060;-48
2021/09/08 03:47:39;;;;;;;28.35;24.73;;;14.60;99.90;;;;;;5064436;28;20060;-49
2021/09/08 03:50:09;;;;;;;28.52;24.83;;;14.50;99.90;;;;;;5069345;28;20504;-53
2021/09/08 03:52:35;;;;;;;30.77;25.73;;;14.50;99.90;;;;;;5063925;28;20131;-52
2021/09/08 03:55:01;;;;;;;27.40;24.48;;;14.50;99.90;;;;;;5060943;28;20473;-52
2021/09/08 03:57:27;;;;;;;30.02;26.27;;;14.40;99.90;;;;;;5061600;28;20098;-51
2021/09/08 03:59:53;;;;;;;30.00;25.92;;;14.50;99.90;;;;;;5068306;28;20858;-50
2021/09/08 04:02:19;;;;;;;28.60;25.70;;;14.50;99.90;;;;;;5067750;28;20105;-50
2021/09/08 04:04:45;;;;;;;28.58;25.42;;;14.50;99.90;;;;;;5059852;28;20111;-51
2021/09/08 04:07:11;;;;;;;29.80;25.23;;;14.50;99.90;;;;;;5064637;28;20064;-51
2021/09/08 04:09:36;;;;;;;29.98;25.65;;;14.50;99.90;;;;;;5069365;28;20462;-50
2021/09/08 04:12:03;;;;;;;30.02;24.67;;;14.50;99.90;;;;;;5065587;28;20044;-49
2021/09/08 04:14:31;;;;;;;28.55;24.50;;;14.50;99.90;;;;;;5068558;28;21217;-48
2021/09/08 04:16:57;;;;;;;28.15;23.75;;;14.40;99.90;;;;;;5069343;28;20126;-53
2021/09/08 04:19:23;;;;;;;29.08;25.05;;;14.40;99.90;;;;;;5065491;28;20048;-52
2021/09/08 04:21:49;;;;;;;28.38;23.08;;;14.40;99.90;;;;;;5069177;28;20053;-53
2021/09/08 04:24:15;;;;;;;29.42;26.25;;;14.40;99.90;;;;;;5067232;28;20083;-52
2021/09/08 04:26:42;;;;;;;27.13;24.10;;;14.30;99.90;;;;;;5066885;28;20048;-51
2021/09/08 04:29:08;;;;;;;28.45;25.55;;;14.30;99.90;;;;;;5067419;28;20052;-50
2021/09/08 04:31:34;;;;;;;25.90;21.95;;;14.30;99.90;;;;;;5069343;28;20051;-48
2021/09/08 04:34:00;;;;;;;28.08;24.63;;;14.30;99.90;;;;;;5063604;28;20049;-51
2021/09/08 04:36:26;;;;;;;28.75;24.63;;;14.30;99.90;;;;;;5067253;28;20517;-54
2021/09/08 04:38:53;;;;;;;29.25;25.35;;;14.20;99.90;;;;;;5068027;28;20052;-51
2021/09/08 04:41:19;;;;;;;26.92;24.13;;;14.20;99.90;;;;;;5071372;28;20052;-49
2021/09/08 04:43:45;;;;;;;27.95;24.95;;;14.20;99.90;;;;;;5067604;28;20051;-49
2021/09/08 04:46:11;;;;;;;29.48;25.35;;;14.20;99.90;;;;;;5068336;28;20092;-49
2021/09/08 04:48:40;;;;;;;29.10;24.40;;;14.30;99.90;;;;;;5067909;28;20053;-47
2021/09/08 04:51:09;;;;;;;27.58;23.73;;;14.30;99.90;;;;;;5067458;28;20091;-48
2021/09/08 04:53:35;;;;;;;28.38;24.65;;;14.20;99.90;;;;;;5065685;28;20071;-48
2021/09/08 04:56:01;;;;;;;27.73;24.35;;;14.20;99.90;;;;;;5068358;28;20056;-50
2021/09/08 04:58:29;;;;;;;29.35;24.75;;;14.20;99.90;;;;;;5068531;28;20405;-48
2021/09/08 05:00:55;;;;;;;30.00;24.58;;;14.20;99.90;;;;;;5067993;28;20041;-46
2021/09/08 05:03:24;;;;;;;27.48;24.55;;;14.20;99.90;;;;;;5068028;28;20139;-49
2021/09/08 05:05:52;;;;;;;27.88;24.42;;;14.20;99.90;;;;;;5066322;28;20044;-51
2021/09/08 05:08:18;;;;;;;27.55;23.65;;;14.10;99.90;;;;;;5067482;28;20053;-53
2021/09/08 05:10:44;;;;;;;27.75;24.85;;;14.10;99.90;;;;;;5068189;28;20416;-50
2021/09/08 05:13:11;;;;;;;27.70;24.80;;;14.10;99.90;;;;;;5064671;28;20075;-50
2021/09/08 05:15:39;;;;;;;31.27;23.50;;;14.10;99.90;;;;;;5067966;28;20049;-49
2021/09/08 05:18:05;;;;;;;30.63;25.85;;;14.10;99.90;;;;;;5063568;28;20105;-48
2021/09/08 05:20:35;;;;;;;28.02;24.33;;;14.10;99.90;;;;;;5068645;28;20205;-47
2021/09/08 05:23:01;;;;;;;29.27;25.08;;;14.10;99.90;;;;;;5067458;28;20131;-49
2021/09/08 05:25:27;;;;;;;27.67;24.83;;;14.10;99.90;;;;;;5067764;28;20048;-51
2021/09/08 05:27:53;;;;;;;27.83;24.80;;;14.10;99.90;;;;;;5067669;28;20056;-48
2021/09/08 05:30:22;;;;;;;29.63;25.77;;;14.10;99.90;;;;;;5067818;28;20048;-51
2021/09/08 05:32:48;;;;;;;28.65;25.23;;;14.10;99.90;;;;;;5064439;28;20064;-49
2021/09/08 05:35:14;;;;;;;28.92;25.08;;;14.30;99.90;;;;;;5065287;28;20055;-50
2021/09/08 05:37:44;;;;;;;29.23;25.15;;;14.40;99.90;;;;;;5067854;28;20052;-47
2021/09/08 05:40:14;;;;;;;32.67;25.92;;;14.40;99.90;;;;;;5067537;28;20049;-49
2021/09/08 05:42:40;;;;;;;29.08;24.25;;;14.40;99.90;;;;;;5067590;28;20048;-51
2021/09/08 05:45:06;;;;;;;27.85;24.70;;;14.50;99.90;;;;;;5064944;28;20079;-50
2021/09/08 05:47:33;;;;;;;27.00;24.25;;;14.60;99.90;;;;;;5078840;28;20067;-48
2021/09/08 05:50:02;;;;;;;105.13;88.07;;;14.70;99.90;;;;;;5078088;28;20138;-50
2021/09/08 05:52:28;;;;;;;29.80;24.88;;;14.90;99.90;;;;;;5078144;28;20064;-49
2021/09/08 05:54:54;;;;;;;30.65;26.48;;;15.00;99.90;;;;;;5079539;28;20128;-47
2021/09/08 05:57:20;;;;;;;24.60;21.77;;;15.20;99.90;;;;;;5070429;28;20079;-50
2021/09/08 05:59:49;;;;;;;26.38;23.58;;;15.40;99.90;;;;;;5076804;28;20508;-47
2021/09/08 06:02:15;;;;;;;25.75;23.02;;;15.50;99.90;;;;;;5078111;28;20198;-51
2021/09/08 06:04:41;;;;;;;32.42;28.92;;;15.60;99.90;;;;;;5077522;28;20105;-52
2021/09/08 06:07:07;;;;;;;27.60;23.30;;;15.80;99.90;;;;;;5076301;28;20048;-51
2021/09/08 06:09:33;;;;;;;26.98;23.58;;;15.90;99.90;;;;;;5074361;28;20061;-50
2021/09/08 06:12:02;;;;;;;23.67;19.95;;;16.00;99.90;;;;;;5096211;28;20059;-56
2021/09/08 06:14:29;;;;;;;27.25;23.40;;;16.20;99.90;;;;;;5065990;28;20067;-49
2021/09/08 06:16:55;;;;;;;28.17;25.23;;;16.30;99.90;;;;;;5071896;28;20047;-48
2021/09/08 06:19:21;;;;;;;23.13;19.25;;;16.40;99.90;;;;;;5066294;28;20053;-47
2021/09/08 06:21:47;;;;;;;21.42;19.15;;;16.60;99.90;;;;;;5066558;28;20451;-49
2021/09/08 06:24:17;;;;;;;22.20;19.80;;;16.70;99.90;;;;;;5066144;28;20056;-52
2021/09/08 06:26:46;;;;;;;20.33;18.08;;;16.90;99.90;;;;;;5066259;28;20040;-49
2021/09/08 06:29:13;;;;;;;19.50;16.85;;;17.00;99.90;;;;;;5066394;28;20057;-49
2021/09/08 06:31:39;;;;;;;18.55;16.55;;;17.40;99.90;;;;;;5066202;28;20040;-52
2021/09/08 06:34:05;;;;;;;21.88;18.42;;;17.60;99.90;;;;;;5064891;28;20060;-51
2021/09/08 06:36:34;;;;;;;18.52;16.23;;;17.90;99.90;;;;;;5066015;28;20424;-48
2021/09/08 06:39:00;;;;;;;20.17;16.23;;;18.10;99.90;;;;;;5068938;28;20091;-50
2021/09/08 06:41:29;;;;;;;21.58;16.38;;;18.20;99.90;;;;;;5064949;28;20060;-52
2021/09/08 06:43:55;;;;;;;18.95;16.92;;;18.60;99.90;;;;;;5078112;28;20055;-49
2021/09/08 06:46:21;;;;;;;32.03;28.58;;;18.80;99.90;;;;;;5079449;28;20044;-56
2021/09/08 06:48:52;;;;;;;21.10;18.88;;;19.00;99.90;;;;;;5064265;28;20139;-54
2021/09/08 06:51:18;;;;;;;21.25;16.95;;;19.30;99.90;;;;;;5065619;28;20056;-55
2021/09/08 06:53:44;;;;;;;18.75;16.60;;;19.40;99.90;;;;;;5064750;28;20405;-50
2021/09/08 06:56:12;;;;;;;17.75;15.75;;;19.60;99.90;;;;;;5066593;28;20048;-50
2021/09/08 06:58:38;;;;;;;18.23;16.25;;;19.80;99.90;;;;;;5065808;28;20134;-53
2021/09/08 07:01:04;;;;;;;18.05;15.80;;;20.00;99.90;;;;;;5081199;28;20048;-51
2021/09/08 07:03:33;;;;;;;17.20;15.35;;;20.30;99.90;;;;;;5064181;28;20057;-56
2021/09/08 07:06:04;;;;;;;16.77;15.07;;;20.50;99.90;;;;;;5066904;28;20076;-57
2021/09/08 07:08:30;;;;;;;;;;;20.70;99.90;;;;;;5064702;28;20060;-52
2021/09/08 07:10:59;;;;;;;17.20;14.75;;;20.70;99.90;;;;;;5064328;28;19970;-54
2021/09/08 07:13:25;;;;;;;17.45;15.65;;;20.70;99.90;;;;;;5067105;28;20083;-50
2021/09/08 07:15:51;;;;;;;18.38;15.93;;;21.10;99.90;;;;;;5070755;28;20074;-56
2021/09/08 07:18:20;;;;;;;16.48;14.77;;;21.20;99.90;;;;;;5070418;28;20069;-54
2021/09/08 07:20:46;;;;;;;16.85;15.23;;;21.50;99.90;;;;;;5070823;28;20698;-53
2021/09/08 07:23:12;;;;;;;17.88;15.52;;;21.70;99.90;;;;;;5071146;28;20067;-54
2021/09/08 07:25:41;;;;;;;17.50;15.70;;;21.90;99.90;;;;;;5070994;28;20143;-55
2021/09/08 07:28:07;;;;;;;17.63;15.82;;;22.10;99.90;;;;;;5070144;28;20052;-54
2021/09/08 07:30:33;;;;;;;17.17;14.27;;;22.40;99.90;;;;;;5071263;28;20110;-56
2021/09/08 07:32:59;;;;;;;16.80;15.05;;;22.60;99.90;;;;;;5071326;28;20480;-53
2021/09/08 07:35:26;;;;;;;15.63;14.02;;;22.70;99.90;;;;;;5071449;28;20053;-54
2021/09/08 07:37:52;;;;;;;18.02;16.23;;;23.20;99.90;;;;;;5070630;28;20052;-55
2021/09/08 07:40:18;;;;;;;16.73;15.00;;;23.10;99.90;;;;;;5070571;28;20060;-54
2021/09/08 07:42:44;;;;;;;17.05;15.30;;;23.10;99.90;;;;;;5070827;28;20155;-55
2021/09/08 07:45:13;;;;;;;17.08;15.38;;;23.60;99.90;;;;;;5070929;28;20060;-55
2021/09/08 07:47:39;;;;;;;18.38;14.95;;;23.90;99.90;;;;;;5069721;28;20139;-52
2021/09/08 07:50:06;;;;;;;15.80;14.30;;;23.90;99.90;;;;;;5070870;28;20504;-55
2021/09/08 07:52:32;;;;;;;16.88;14.05;;;24.00;99.40;;;;;;5071306;28;20052;-54
2021/09/08 07:54:58;;;;;;;15.90;13.55;;;23.90;97.20;;;;;;5070441;28;20807;-57
2021/09/08 07:57:24;;;;;;;14.32;12.93;;;23.80;96.50;;;;;;5070495;28;20066;-52
2021/09/08 07:59:53;;;;;;;15.32;13.68;;;24.00;96.90;;;;;;5070563;28;20075;-56
2021/09/08 08:02:19;;;;;;;18.23;13.52;;;24.30;95.80;;;;;;5070522;28;20496;-53
2021/09/08 08:04:48;;;;;;;15.15;13.50;;;24.60;93.80;;;;;;5070516;28;20052;-55
2021/09/08 08:07:14;;;;;;;13.85;11.95;;;24.70;91.90;;;;;;5070853;28;20056;-55
2021/09/08 08:09:43;;;;;;;13.98;12.50;;;25.20;91.10;;;;;;5069701;28;20098;-57
2021/09/08 08:12:10;;;;;;;15.35;13.80;;;25.20;87.70;;;;;;5070547;28;20045;-55
2021/09/08 08:14:36;;;;;;;14.35;12.80;;;25.20;82.40;;;;;;5069399;28;20060;-56
2021/09/08 08:17:04;;;;;;;13.75;12.35;;;25.30;82.80;;;;;;5070716;28;20090;-56
2021/09/08 08:19:31;;;;;;;15.07;12.18;;;25.70;78.90;;;;;;5069277;28;20056;-57
2021/09/08 08:21:57;;;;;;;14.80;13.30;;;25.70;76.50;;;;;;5070171;28;20164;-57
2021/09/08 08:24:24;;;;;;;13.68;12.27;;;25.90;75.60;;;;;;5069283;28;20067;-56
2021/09/08 08:26:52;;;;;;;15.32;12.60;;;26.10;76.00;;;;;;5070774;28;20060;-56
2021/09/08 08:29:18;;;;;;;14.00;11.98;;;26.40;72.40;;;;;;5071006;28;20068;-54
2021/09/08 08:31:44;;;;;;;14.65;11.30;;;26.70;70.40;;;;;;5070115;28;20058;-55
2021/09/08 08:34:12;;;;;;;14.07;11.52;;;26.90;68.60;;;;;;5070179;28;20548;-53
2021/09/08 08:36:38;;;;;;;12.98;11.63;;;27.10;66.50;;;;;;5068868;28;20382;-56
2021/09/08 08:39:04;;;;;;;13.75;11.02;;;27.30;66.30;;;;;;5069838;28;20052;-57
2021/09/08 08:41:32;;;;;;;13.20;10.60;;;27.60;65.70;;;;;;5069170;28;20051;-55
2021/09/08 08:43:59;;;;;;;13.57;10.80;;;27.50;63.00;;;;;;5069751;28;20060;-57
2021/09/08 08:46:25;;;;;;;12.95;11.50;;;27.20;64.00;;;;;;5069913;28;20064;-56
2021/09/08 08:48:52;;;;;;;13.38;11.27;;;27.60;63.40;;;;;;5069714;28;20565;-56
2021/09/08 08:51:18;;;;;;;10.38;9.35;;;28.10;63.30;;;;;;5069162;28;20518;-57
2021/09/08 08:53:44;;;;;;;12.68;9.98;;;28.10;62.40;;;;;;5070089;28;20148;-56
2021/09/08 08:56:10;;;;;;;10.90;9.52;;;28.40;61.70;;;;;;5069930;28;20503;-55
2021/09/08 08:58:36;;;;;;;10.93;9.77;;;28.70;61.10;;;;;;5069917;28;20060;-57
2021/09/08 09:01:24;;;;;;;10.30;9.20;;;28.80;60.60;;;;;;5069711;28;20045;-54
2021/09/08 09:04:05;;;;;;;13.50;9.55;;;28.90;59.20;;;;;;5069745;28;20052;-54
2021/09/08 09:06:38;;;;;;;11.13;9.75;;;29.30;57.40;;;;;;5068891;28;20049;-55
2021/09/08 09:09:18;;;;;;;12.13;10.60;;;29.30;58.20;;;;;;5069454;28;20060;-53
2021/09/08 09:11:47;;;;;;;13.32;10.38;;;29.40;56.70;;;;;;5068582;28;20091;-55
2021/09/08 09:14:15;;;;;;;10.55;9.48;;;29.80;57.80;;;;;;5069026;28;20190;-55
2021/09/08 09:16:43;;;;;;;10.60;9.55;;;29.80;54.80;;;;;;5069074;28;20066;-55
2021/09/08 09:19:11;;;;;;;12.40;10.07;;;29.70;53.50;;;;;;5069504;28;20134;-53
2021/09/08 09:21:38;;;;;;;11.38;10.18;;;29.60;54.00;;;;;;5068836;28;20078;-54
2021/09/08 09:24:06;;;;;;;11.63;9.68;;;29.80;54.00;;;;;;5068787;28;20052;-54
2021/09/08 09:26:38;;;;;;;12.07;10.60;;;29.80;54.00;;;;;;5067302;28;20488;-54
2021/09/08 09:29:20;;;;;;;11.48;10.27;;;29.70;53.60;;;;;;5068774;28;20087;-51
2021/09/08 09:31:58;;;;;;;11.52;9.80;;;30.10;53.00;;;;;;5049465;28;20079;-54
2021/09/08 09:34:27;;;;;;;11.85;10.45;;;29.90;52.80;;;;;;5048955;28;20057;-54
2021/09/08 09:36:56;;;;;;;11.23;10.13;;;30.40;52.00;;;;;;5050768;28;20075;-53
2021/09/08 09:39:27;;;;;;;11.50;10.30;;;30.20;53.00;;;;;;5068140;28;20064;-53
2021/09/08 09:41:57;;;;;;;10.82;8.93;;;30.40;53.10;;;;;;5068357;28;20143;-55
2021/09/08 09:44:23;;;;;;;10.30;9.20;;;31.00;52.30;;;;;;5067928;28;20041;-54
2021/09/08 09:46:55;;;;;;;11.85;10.65;;;30.90;52.30;;;;;;5068489;28;20061;-55
2021/09/08 09:49:22;;;;;;;10.85;9.75;;;31.20;49.60;;;;;;5067861;28;20412;-56
2021/09/08 09:51:48;;;;;;;10.75;9.68;;;31.30;50.10;;;;;;5068160;28;20063;-56
2021/09/08 09:54:18;;;;;;;11.07;9.43;;;31.00;49.80;;;;;;5067984;28;20060;-55
2021/09/08 09:56:44;;;;;;;11.45;9.40;;;31.20;48.50;;;;;;5068108;28;20048;-54
2021/09/08 09:59:10;;;;;;;11.85;9.30;;;30.80;49.10;;;;;;5068146;28;20058;-56
2021/09/08 10:01:37;;;;;;;11.77;9.73;;;31.30;49.20;;;;;;5068112;28;20070;-55
2021/09/08 10:04:03;;;;;;;12.35;9.98;;;31.20;49.00;;;;;;5068400;28;20044;-55
2021/09/08 10:06:30;;;;;;;10.27;9.15;;;31.10;49.10;;;;;;5067933;28;20135;-54
2021/09/08 10:08:58;;;;;;;12.15;9.27;;;30.80;49.30;;;;;;5067964;28;20063;-56
2021/09/08 10:11:32;;;;;;;13.00;10.38;;;31.10;48.60;;;;;;5068361;28;20049;-56
2021/09/08 10:14:09;;;;;;;10.55;9.55;;;31.10;47.70;;;;;;5068380;28;20102;-53
2021/09/08 10:16:36;;;;;;;9.98;8.95;;;31.50;48.00;;;;;;5066291;28;20163;-55
2021/09/08 10:19:04;;;;;;;10.32;9.32;;;31.60;48.40;;;;;;5067679;28;20056;-53
2021/09/08 10:21:30;;;;;;;10.32;8.10;;;31.70;47.50;;;;;;5067897;28;20067;-53
2021/09/08 10:23:59;;;;;;;9.95;7.70;;;31.80;47.70;;;;;;5067950;28;20508;-54
2021/09/08 10:26:29;;;;;;;9.27;7.32;;;32.30;46.40;;;;;;5068020;28;20053;-54
2021/09/08 10:29:04;;;;;;;9.00;7.32;;;32.50;46.40;;;;;;5067436;28;20063;-53
2021/09/08 10:31:32;;;;;;;8.18;6.63;;;32.20;45.20;;;;;;5066625;28;20060;-54
2021/09/08 10:33:59;;;;;;;8.27;6.95;;;32.30;45.10;;;;;;5067860;28;20059;-54
2021/09/08 10:36:26;;;;;;;9.70;7.38;;;32.20;44.50;;;;;;5067580;28;20101;-53
2021/09/08 10:39:19;;;;;;;7.15;6.43;;;32.10;44.80;;;;;;5067013;28;20063;-55
2021/09/08 10:41:52;;;;;;;8.73;7.15;;;32.30;44.60;;;;;;5024847;28;20041;-55
2021/09/08 10:44:43;;;;;;;8.85;6.55;;;32.30;44.00;;;;;;5024799;28;20684;-55
2021/09/08 10:47:13;;;;;;;7.32;6.60;;;32.50;43.60;;;;;;5030353;28;20056;-56
2021/09/08 10:49:43;;;;;;;7.47;6.50;;;32.70;44.30;;;;;;5026872;28;20061;-55
2021/09/08 10:52:15;;;;;;;8.07;6.18;;;32.70;44.90;;;;;;5027213;28;20058;-54
2021/09/08 10:54:59;;;;;;;8.98;6.65;;;33.00;43.30;;;;;;5027113;28;20054;-56
2021/09/08 10:57:40;;;;;;;9.13;6.07;;;33.10;42.80;;;;;;5026119;28;20615;-55
2021/09/08 11:00:11;;;;;;;9.13;6.20;;;32.60;41.70;;;;;;5011119;28;20085;-55
2021/09/08 11:02:39;;;;;;;7.28;5.78;;;33.00;41.90;;;;;;5027186;28;20060;-55
2021/09/08 11:05:05;;;;;;;7.38;5.70;;;32.40;41.50;;;;;;5027170;28;20136;-55
2021/09/08 11:07:31;;;;;;;6.85;6.15;;;32.90;42.30;;;;;;5026978;28;20072;-55
2021/09/08 11:09:58;;;;;;;9.02;5.80;;;33.10;42.10;;;;;;5026525;28;20072;-55
2021/09/08 11:12:47;;;;;;;7.60;5.75;;;33.10;41.90;;;;;;5027697;28;20058;-54
2021/09/08 11:15:13;;;;;;;8.02;5.70;;;32.80;41.70;;;;;;5027552;28;20068;-54
2021/09/08 11:17:40;;;;;;;7.10;5.13;;;33.10;41.90;;;;;;5028518;28;20049;-53
2021/09/08 11:20:08;;;;;;;7.88;5.47;;;33.30;41.50;;;;;;5050360;28;20135;-55
2021/09/08 11:22:37;;;;;;;7.07;6.07;;;33.70;39.90;;;;;;5050410;28;20064;-54
2021/09/08 11:25:10;;;;;;;6.82;5.38;;;33.40;40.80;;;;;;5061866;28;20087;-56
2021/09/08 11:27:39;;;;;;;5.85;5.25;;;33.60;40.30;;;;;;5055436;28;20114;-55
2021/09/08 11:30:11;;;;;;;8.02;5.18;;;33.90;40.80;;;;;;5048772;28;20045;-56
2021/09/08 11:32:55;;;;;;;7.70;5.72;;;33.80;40.50;;;;;;5061770;28;20056;-56
2021/09/08 11:35:34;;;;;;;7.65;5.80;;;33.80;41.10;;;;;;5069817;28;20048;-55
2021/09/08 11:38:07;;;;;;;6.93;5.32;;;33.70;38.80;;;;;;5069535;28;20463;-55
2021/09/08 11:40:33;;;;;;;7.45;6.07;;;33.80;40.70;;;;;;5069879;28;20106;-55
2021/09/08 11:43:00;;;;;;;6.55;5.72;;;33.30;39.70;;;;;;5070144;28;20048;-54
2021/09/08 11:45:27;;;;;;;6.78;5.63;;;33.60;39.60;;;;;;5051948;28;20101;-56
2021/09/08 11:47:54;;;;;;;7.88;6.03;;;33.50;40.10;;;;;;5028237;28;1201321;-56
2021/09/08 11:50:20;;;;;;;7.50;6.28;;;33.60;39.60;;;;;;5071398;28;20551;-55
2021/09/08 11:52:56;;;;;;;8.15;6.65;;;33.80;40.40;;;;;;5071061;28;20708;-56
2021/09/08 11:55:27;;;;;;;7.03;6.20;;;33.80;40.50;;;;;;5071717;28;20060;-56
2021/09/08 11:57:53;;;;;;;7.68;6.32;;;34.30;40.30;;;;;;5070879;28;20513;-54
2021/09/08 12:00:19;;;;;;;7.50;6.10;;;34.60;40.30;;;;;;5069365;28;20489;-56
2021/09/08 12:02:46;;;;;;;7.88;6.07;;;34.90;40.20;;;;;;5071225;28;20052;-56
2021/09/08 12:05:20;;;;;;;10.38;6.78;;;35.00;38.80;;;;;;5070337;28;20472;-56
2021/09/08 12:07:58;;;;;;;8.85;6.70;;;34.90;38.00;;;;;;5070777;28;20045;-55
2021/09/08 12:10:36;;;;;;;7.75;6.93;;;34.90;37.90;;;;;;5069741;28;20164;-55
2021/09/08 12:13:02;;;;;;;8.93;6.65;;;34.90;38.00;;;;;;5070112;28;20106;-55
2021/09/08 12:15:33;;;;;;;10.77;6.93;;;34.70;38.30;;;;;;5070169;28;20052;-55
2021/09/08 12:18:18;;;;;;;8.30;6.85;;;34.80;38.60;;;;;;5069969;28;20049;-55
2021/09/08 12:20:44;;;;;;;8.55;6.45;;;35.00;37.90;;;;;;5068900;28;20500;-56
2021/09/08 12:23:31;;;;;;;8.60;7.13;;;34.50;38.60;;;;;;5069376;28;20071;-56
2021/09/08 12:26:11;;;;;;;7.90;6.05;;;35.10;38.00;;;;;;5070273;28;20089;-55
2021/09/08 12:28:58;;;;;;;8.18;7.20;;;34.70;39.10;;;;;;5070463;28;20048;-55
2021/09/08 12:31:27;;;;;;;8.40;7.60;;;34.60;38.70;;;;;;5070012;28;20052;-56
2021/09/08 12:33:55;;;;;;;8.52;6.53;;;34.90;39.40;;;;;;5068978;28;20413;-56
2021/09/08 12:36:24;;;;;;;8.02;7.00;;;34.70;39.60;;;;;;5070048;28;20052;-55